Terminal Aerodrome Forecast
Issued by NWS

Home | Current Version | Previous Version | Text Only | Print | Product List | Glossary On
Versions: 1 2 3 4 5 6 7 8 9 10 11 12 13
469
FTUS42 TJSJ 272324
TAFNCM
TAF
TNCM 272324Z 2800/2824 08011KT P6SM SCT018
      TEMPO 2800/2802 BKN017
     FM281300 10013KT P6SM FEW020
     FM282300 07008KT P6SM FEW018=

USA.gov is the U.S. government's official web portal to all federal, state and local government web resources and services.